sensor_id;sensor_type;location;lat;lon;timestamp;temperature;humidity
57753;DHT22;43583;53.132;6.574;2023-04-15T00:00:13;6.80;99.90
57753;DHT22;43583;53.132;6.574;2023-04-15T00:02:40;6.80;99.90
57753;DHT22;43583;53.132;6.574;2023-04-15T00:05:06;6.80;99.90
57753;DHT22;43583;53.132;6.574;2023-04-15T00:07:32;6.70;99.90
57753;DHT22;43583;53.132;6.574;2023-04-15T00:09:58;6.70;99.90
57753;DHT22;43583;53.132;6.574;2023-04-15T00:12:27;6.60;99.90
57753;DHT22;43583;53.132;6.574;2023-04-15T00:14:53;6.60;99.90
57753;DHT22;43583;53.132;6.574;2023-04-15T00:17:19;6.60;99.90
57753;DHT22;43583;53.132;6.574;2023-04-15T00:19:44;6.60;99.90
57753;DHT22;43583;53.132;6.574;2023-04-15T00:22:10;6.60;99.90
57753;DHT22;43583;53.132;6.574;2023-04-15T00:24:36;6.50;99.90
57753;DHT22;43583;53.132;6.574;2023-04-15T00:27:02;6.50;99.90
57753;DHT22;43583;53.132;6.574;2023-04-15T00:29:28;6.40;99.90
57753;DHT22;43583;53.132;6.574;2023-04-15T00:31:55;6.40;99.90
57753;DHT22;43583;53.132;6.574;2023-04-15T00:34:21;6.30;99.90
57753;DHT22;43583;53.132;6.574;2023-04-15T00:36:47;6.30;99.90
57753;DHT22;43583;53.132;6.574;2023-04-15T00:39:13;6.30;99.90
57753;DHT22;43583;53.132;6.574;2023-04-15T00:41:40;6.30;99.90
57753;DHT22;43583;53.132;6.574;2023-04-15T00:44:06;6.30;99.90
57753;DHT22;43583;53.132;6.574;2023-04-15T00:46:34;6.20;99.90
57753;DHT22;43583;53.132;6.574;2023-04-15T00:49:02;6.20;99.90
57753;DHT22;43583;53.132;6.574;2023-04-15T00:51:28;6.20;99.90
57753;DHT22;43583;53.132;6.574;2023-04-15T00:53:56;6.20;99.90
57753;DHT22;43583;53.132;6.574;2023-04-15T00:56:22;6.20;99.90
57753;DHT22;43583;53.132;6.574;2023-04-15T00:58:50;6.20;99.90
57753;DHT22;43583;53.132;6.574;2023-04-15T01:01:17;6.20;99.90
57753;DHT22;43583;53.132;6.574;2023-04-15T01:03:45;6.20;99.90
57753;DHT22;43583;53.132;6.574;2023-04-15T01:06:11;6.10;99.90
57753;DHT22;43583;53.132;6.574;2023-04-15T01:08:38;6.10;99.90
57753;DHT22;43583;53.132;6.574;2023-04-15T01:11:04;6.00;99.90
57753;DHT22;43583;53.132;6.574;2023-04-15T01:13:29;6.00;99.90
57753;DHT22;43583;53.132;6.574;2023-04-15T01:15:56;6.00;99.90
57753;DHT22;43583;53.132;6.574;2023-04-15T01:18:22;6.00;99.90
57753;DHT22;43583;53.132;6.574;2023-04-15T01:20:48;5.90;99.90
57753;DHT22;43583;53.132;6.574;2023-04-15T01:23:14;5.90;99.90
57753;DHT22;43583;53.132;6.574;2023-04-15T01:25:42;5.80;99.90
57753;DHT22;43583;53.132;6.574;2023-04-15T01:28:08;5.80;99.90
57753;DHT22;43583;53.132;6.574;2023-04-15T01:30:34;5.80;99.90
57753;DHT22;43583;53.132;6.574;2023-04-15T01:32:59;5.80;99.90
57753;DHT22;43583;53.132;6.574;2023-04-15T01:35:25;5.80;99.90
57753;DHT22;43583;53.132;6.574;2023-04-15T01:37:52;5.80;99.90
57753;DHT22;43583;53.132;6.574;2023-04-15T01:40:18;5.80;99.90
57753;DHT22;43583;53.132;6.574;2023-04-15T01:42:45;5.80;99.90
57753;DHT22;43583;53.132;6.574;2023-04-15T01:45:11;5.80;99.90
57753;DHT22;43583;53.132;6.574;2023-04-15T01:47:37;5.80;99.90
57753;DHT22;43583;53.132;6.574;2023-04-15T01:50:03;5.80;99.90
57753;DHT22;43583;53.132;6.574;2023-04-15T01:52:29;5.80;99.90
57753;DHT22;43583;53.132;6.574;2023-04-15T01:54:55;5.80;99.90
57753;DHT22;43583;53.132;6.574;2023-04-15T01:57:20;5.80;99.90
57753;DHT22;43583;53.132;6.574;2023-04-15T01:59:46;5.80;99.90
57753;DHT22;43583;53.132;6.574;2023-04-15T02:02:11;5.80;99.90
57753;DHT22;43583;53.132;6.574;2023-04-15T02:04:37;5.70;99.90
57753;DHT22;43583;53.132;6.574;2023-04-15T02:07:02;5.70;99.90
57753;DHT22;43583;53.132;6.574;2023-04-15T02:09:28;5.70;99.90
57753;DHT22;43583;53.132;6.574;2023-04-15T02:11:54;5.60;99.90
57753;DHT22;43583;53.132;6.574;2023-04-15T02:14:19;5.60;99.90
57753;DHT22;43583;53.132;6.574;2023-04-15T02:16:45;5.60;99.90
57753;DHT22;43583;53.132;6.574;2023-04-15T02:19:11;5.60;99.90
57753;DHT22;43583;53.132;6.574;2023-04-15T02:21:37;5.60;99.90
57753;DHT22;43583;53.132;6.574;2023-04-15T02:24:02;5.50;99.90
57753;DHT22;43583;53.132;6.574;2023-04-15T02:26:28;5.50;99.90
57753;DHT22;43583;53.132;6.574;2023-04-15T02:28:56;5.50;99.90
57753;DHT22;43583;53.132;6.574;2023-04-15T02:31:22;5.50;99.90
57753;DHT22;43583;53.132;6.574;2023-04-15T02:33:48;5.50;99.90
57753;DHT22;43583;53.132;6.574;2023-04-15T02:36:13;5.50;99.90
57753;DHT22;43583;53.132;6.574;2023-04-15T02:38:39;5.50;99.90
57753;DHT22;43583;53.132;6.574;2023-04-15T02:41:07;5.40;99.90
57753;DHT22;43583;53.132;6.574;2023-04-15T02:43:33;5.40;99.90
57753;DHT22;43583;53.132;6.574;2023-04-15T02:45:59;5.40;99.90
57753;DHT22;43583;53.132;6.574;2023-04-15T02:48:24;5.40;99.90
57753;DHT22;43583;53.132;6.574;2023-04-15T02:50:50;5.40;99.90
57753;DHT22;43583;53.132;6.574;2023-04-15T02:53:16;5.40;99.90
57753;DHT22;43583;53.132;6.574;2023-04-15T02:55:41;5.40;99.90
57753;DHT22;43583;53.132;6.574;2023-04-15T02:58:07;5.40;99.90
57753;DHT22;43583;53.132;6.574;2023-04-15T03:00:32;5.40;99.90
57753;DHT22;43583;53.132;6.574;2023-04-15T03:03:02;5.40;99.90
57753;DHT22;43583;53.132;6.574;2023-04-15T03:05:28;5.40;99.90
57753;DHT22;43583;53.132;6.574;2023-04-15T03:07:54;5.40;99.90
57753;DHT22;43583;53.132;6.574;2023-04-15T03:10:20;5.40;99.90
57753;DHT22;43583;53.132;6.574;2023-04-15T03:12:46;5.40;99.90
57753;DHT22;43583;53.132;6.574;2023-04-15T03:15:12;5.30;99.90
57753;DHT22;43583;53.132;6.574;2023-04-15T03:17:37;5.30;99.90
57753;DHT22;43583;53.132;6.574;2023-04-15T03:20:04;5.30;99.90
57753;DHT22;43583;53.132;6.574;2023-04-15T03:22:33;5.20;99.90
57753;DHT22;43583;53.132;6.574;2023-04-15T03:24:58;5.10;99.90
57753;DHT22;43583;53.132;6.574;2023-04-15T03:27:24;5.00;99.90
57753;DHT22;43583;53.132;6.574;2023-04-15T03:29:50;4.90;99.90
57753;DHT22;43583;53.132;6.574;2023-04-15T03:32:16;4.80;99.90
57753;DHT22;43583;53.132;6.574;2023-04-15T03:34:42;4.70;99.90
57753;DHT22;43583;53.132;6.574;2023-04-15T03:37:07;4.60;99.90
57753;DHT22;43583;53.132;6.574;2023-04-15T03:39:34;4.50;99.90
57753;DHT22;43583;53.132;6.574;2023-04-15T03:42:00;4.40;99.90
57753;DHT22;43583;53.132;6.574;2023-04-15T03:44:26;4.40;99.90
57753;DHT22;43583;53.132;6.574;2023-04-15T03:46:52;4.30;99.90
57753;DHT22;43583;53.132;6.574;2023-04-15T03:49:18;4.30;99.90
57753;DHT22;43583;53.132;6.574;2023-04-15T03:51:44;4.20;99.90
57753;DHT22;43583;53.132;6.574;2023-04-15T03:54:09;4.20;99.90
57753;DHT22;43583;53.132;6.574;2023-04-15T03:56:36;4.20;99.90
57753;DHT22;43583;53.132;6.574;2023-04-15T03:59:01;4.20;99.90
57753;DHT22;43583;53.132;6.574;2023-04-15T04:01:27;4.10;99.90
57753;DHT22;43583;53.132;6.574;2023-04-15T04:03:52;4.10;99.90
57753;DHT22;43583;53.132;6.574;2023-04-15T04:06:18;4.10;99.90
57753;DHT22;43583;53.132;6.574;2023-04-15T04:08:44;4.00;99.90
57753;DHT22;43583;53.132;6.574;2023-04-15T04:11:10;4.00;99.90
57753;DHT22;43583;53.132;6.574;2023-04-15T04:13:35;3.90;99.90
57753;DHT22;43583;53.132;6.574;2023-04-15T04:16:01;3.90;99.90
57753;DHT22;43583;53.132;6.574;2023-04-15T04:18:28;3.90;99.90
57753;DHT22;43583;53.132;6.574;2023-04-15T04:20:54;3.90;99.90
57753;DHT22;43583;53.132;6.574;2023-04-15T04:23:19;3.90;99.90
57753;DHT22;43583;53.132;6.574;2023-04-15T04:25:45;3.80;99.90
57753;DHT22;43583;53.132;6.574;2023-04-15T04:28:11;3.80;99.90
57753;DHT22;43583;53.132;6.574;2023-04-15T04:30:36;3.80;99.90
57753;DHT22;43583;53.132;6.574;2023-04-15T04:33:02;3.80;99.90
57753;DHT22;43583;53.132;6.574;2023-04-15T04:35:28;3.80;99.90
57753;DHT22;43583;53.132;6.574;2023-04-15T04:37:53;3.80;99.90
57753;DHT22;43583;53.132;6.574;2023-04-15T04:40:19;3.80;99.90
57753;DHT22;43583;53.132;6.574;2023-04-15T04:42:45;3.70;99.90
57753;DHT22;43583;53.132;6.574;2023-04-15T04:45:10;3.70;99.90
57753;DHT22;43583;53.132;6.574;2023-04-15T04:47:36;3.70;99.90
57753;DHT22;43583;53.132;6.574;2023-04-15T04:50:02;3.70;99.90
57753;DHT22;43583;53.132;6.574;2023-04-15T04:52:27;3.60;99.90
57753;DHT22;43583;53.132;6.574;2023-04-15T04:54:53;3.70;99.90
57753;DHT22;43583;53.132;6.574;2023-04-15T04:57:18;3.70;99.90
57753;DHT22;43583;53.132;6.574;2023-04-15T04:59:44;3.70;99.90
57753;DHT22;43583;53.132;6.574;2023-04-15T05:02:10;3.70;99.90
57753;DHT22;43583;53.132;6.574;2023-04-15T05:04:35;3.70;99.90
57753;DHT22;43583;53.132;6.574;2023-04-15T05:07:01;3.80;99.90
57753;DHT22;43583;53.132;6.574;2023-04-15T05:09:27;3.80;99.90
57753;DHT22;43583;53.132;6.574;2023-04-15T05:11:53;3.80;99.90
57753;DHT22;43583;53.132;6.574;2023-04-15T05:14:18;4.00;99.90
57753;DHT22;43583;53.132;6.574;2023-04-15T05:16:44;4.10;99.90
57753;DHT22;43583;53.132;6.574;2023-04-15T05:19:09;4.40;99.90
57753;DHT22;43583;53.132;6.574;2023-04-15T05:21:35;4.70;99.90
57753;DHT22;43583;53.132;6.574;2023-04-15T05:24:01;5.10;99.90
57753;DHT22;43583;53.132;6.574;2023-04-15T05:26:26;5.50;99.90
57753;DHT22;43583;53.132;6.574;2023-04-15T05:28:52;5.80;99.90
57753;DHT22;43583;53.132;6.574;2023-04-15T05:31:18;6.00;99.90
57753;DHT22;43583;53.132;6.574;2023-04-15T05:33:44;6.20;99.90
57753;DHT22;43583;53.132;6.574;2023-04-15T05:36:09;6.40;99.90
57753;DHT22;43583;53.132;6.574;2023-04-15T05:38:36;6.70;99.90
57753;DHT22;43583;53.132;6.574;2023-04-15T05:41:02;6.90;99.90
57753;DHT22;43583;53.132;6.574;2023-04-15T05:43:27;7.00;99.90
57753;DHT22;43583;53.132;6.574;2023-04-15T05:45:53;7.10;99.90
57753;DHT22;43583;53.132;6.574;2023-04-15T05:48:18;7.30;99.90
57753;DHT22;43583;53.132;6.574;2023-04-15T05:50:44;7.60;99.90
57753;DHT22;43583;53.132;6.574;2023-04-15T05:53:09;7.90;99.90
57753;DHT22;43583;53.132;6.574;2023-04-15T05:55:35;8.50;99.90
57753;DHT22;43583;53.132;6.574;2023-04-15T05:58:01;9.00;99.90
57753;DHT22;43583;53.132;6.574;2023-04-15T06:00:28;9.50;99.90
57753;DHT22;43583;53.132;6.574;2023-04-15T06:02:55;9.90;99.90
57753;DHT22;43583;53.132;6.574;2023-04-15T06:05:20;10.00;99.90
57753;DHT22;43583;53.132;6.574;2023-04-15T06:07:46;10.10;99.90
57753;DHT22;43583;53.132;6.574;2023-04-15T06:10:12;10.30;99.90
57753;DHT22;43583;53.132;6.574;2023-04-15T06:12:37;10.30;99.90
57753;DHT22;43583;53.132;6.574;2023-04-15T06:15:03;10.30;99.90
57753;DHT22;43583;53.132;6.574;2023-04-15T06:17:30;10.10;99.90
57753;DHT22;43583;53.132;6.574;2023-04-15T06:19:56;10.10;99.90
57753;DHT22;43583;53.132;6.574;2023-04-15T06:22:22;10.10;99.90
57753;DHT22;43583;53.132;6.574;2023-04-15T06:24:48;10.20;99.90
57753;DHT22;43583;53.132;6.574;2023-04-15T06:27:15;10.30;99.90
57753;DHT22;43583;53.132;6.574;2023-04-15T06:29:41;10.30;99.90
57753;DHT22;43583;53.132;6.574;2023-04-15T06:32:07;10.20;99.90
57753;DHT22;43583;53.132;6.574;2023-04-15T06:34:32;10.20;99.90
57753;DHT22;43583;53.132;6.574;2023-04-15T06:36:58;10.20;99.90
57753;DHT22;43583;53.132;6.574;2023-04-15T06:39:25;10.30;99.90
57753;DHT22;43583;53.132;6.574;2023-04-15T06:41:51;10.50;99.90
57753;DHT22;43583;53.132;6.574;2023-04-15T06:44:17;10.60;99.90
57753;DHT22;43583;53.132;6.574;2023-04-15T06:46:43;10.70;99.90
57753;DHT22;43583;53.132;6.574;2023-04-15T06:49:09;10.70;99.90
57753;DHT22;43583;53.132;6.574;2023-04-15T06:51:34;10.60;99.90
57753;DHT22;43583;53.132;6.574;2023-04-15T06:54:01;10.60;99.90
57753;DHT22;43583;53.132;6.574;2023-04-15T06:56:27;10.60;99.90
57753;DHT22;43583;53.132;6.574;2023-04-15T06:58:52;10.50;99.90
57753;DHT22;43583;53.132;6.574;2023-04-15T07:01:18;10.40;99.90
57753;DHT22;43583;53.132;6.574;2023-04-15T07:03:44;10.30;99.90
57753;DHT22;43583;53.132;6.574;2023-04-15T07:06:10;10.20;99.90
57753;DHT22;43583;53.132;6.574;2023-04-15T07:08:38;10.10;99.90
57753;DHT22;43583;53.132;6.574;2023-04-15T07:11:04;10.10;99.90
57753;DHT22;43583;53.132;6.574;2023-04-15T07:13:31;10.00;99.90
57753;DHT22;43583;53.132;6.574;2023-04-15T07:15:57;10.00;99.90
57753;DHT22;43583;53.132;6.574;2023-04-15T07:18:22;9.90;99.90
57753;DHT22;43583;53.132;6.574;2023-04-15T07:20:48;9.90;99.90
57753;DHT22;43583;53.132;6.574;2023-04-15T07:23:14;9.90;99.90
57753;DHT22;43583;53.132;6.574;2023-04-15T07:25:39;9.90;99.90
57753;DHT22;43583;53.132;6.574;2023-04-15T07:28:05;9.80;99.90
57753;DHT22;43583;53.132;6.574;2023-04-15T07:30:31;9.90;99.90
57753;DHT22;43583;53.132;6.574;2023-04-15T07:32:57;9.90;99.90
57753;DHT22;43583;53.132;6.574;2023-04-15T07:35:23;9.90;99.90
57753;DHT22;43583;53.132;6.574;2023-04-15T07:37:50;9.80;99.90
57753;DHT22;43583;53.132;6.574;2023-04-15T07:40:16;9.70;99.90
57753;DHT22;43583;53.132;6.574;2023-04-15T07:42:42;9.60;99.90
57753;DHT22;43583;53.132;6.574;2023-04-15T07:45:08;9.70;99.90
57753;DHT22;43583;53.132;6.574;2023-04-15T07:47:34;9.60;99.90
57753;DHT22;43583;53.132;6.574;2023-04-15T07:50:00;9.60;99.90
57753;DHT22;43583;53.132;6.574;2023-04-15T07:52:26;9.60;99.90
57753;DHT22;43583;53.132;6.574;2023-04-15T07:54:52;9.60;99.90
57753;DHT22;43583;53.132;6.574;2023-04-15T07:57:18;9.70;99.90
57753;DHT22;43583;53.132;6.574;2023-04-15T07:59:44;9.60;99.90
57753;DHT22;43583;53.132;6.574;2023-04-15T08:02:10;9.60;99.90
57753;DHT22;43583;53.132;6.574;2023-04-15T08:04:36;9.50;99.90
57753;DHT22;43583;53.132;6.574;2023-04-15T08:07:02;9.40;99.90
57753;DHT22;43583;53.132;6.574;2023-04-15T08:09:28;9.30;99.90
57753;DHT22;43583;53.132;6.574;2023-04-15T08:11:54;9.30;99.90
57753;DHT22;43583;53.132;6.574;2023-04-15T08:14:21;9.30;99.90
57753;DHT22;43583;53.132;6.574;2023-04-15T08:16:47;9.20;99.90
57753;DHT22;43583;53.132;6.574;2023-04-15T08:19:12;9.30;99.90
57753;DHT22;43583;53.132;6.574;2023-04-15T08:21:38;9.30;99.90
57753;DHT22;43583;53.132;6.574;2023-04-15T08:24:05;9.40;99.90
57753;DHT22;43583;53.132;6.574;2023-04-15T08:26:31;9.40;99.90
57753;DHT22;43583;53.132;6.574;2023-04-15T08:28:57;9.40;99.90
57753;DHT22;43583;53.132;6.574;2023-04-15T08:31:22;9.40;99.90
57753;DHT22;43583;53.132;6.574;2023-04-15T08:33:48;9.40;99.90
57753;DHT22;43583;53.132;6.574;2023-04-15T08:36:16;9.40;99.90
57753;DHT22;43583;53.132;6.574;2023-04-15T08:38:44;9.40;99.90
57753;DHT22;43583;53.132;6.574;2023-04-15T08:41:21;9.30;99.90
57753;DHT22;43583;53.132;6.574;2023-04-15T08:43:57;9.20;99.90
57753;DHT22;43583;53.132;6.574;2023-04-15T08:46:23;9.20;99.90
57753;DHT22;43583;53.132;6.574;2023-04-15T08:48:49;9.20;99.90
57753;DHT22;43583;53.132;6.574;2023-04-15T08:51:16;9.10;99.90
57753;DHT22;43583;53.132;6.574;2023-04-15T08:53:43;9.10;99.90
57753;DHT22;43583;53.132;6.574;2023-04-15T08:56:11;9.10;99.90
57753;DHT22;43583;53.132;6.574;2023-04-15T08:58:38;8.90;99.90
57753;DHT22;43583;53.132;6.574;2023-04-15T09:01:04;8.90;99.90
57753;DHT22;43583;53.132;6.574;2023-04-15T09:03:30;8.90;99.90
57753;DHT22;43583;53.132;6.574;2023-04-15T09:05:56;8.90;99.90
57753;DHT22;43583;53.132;6.574;2023-04-15T09:08:23;9.00;99.90
57753;DHT22;43583;53.132;6.574;2023-04-15T09:10:48;9.00;99.90
57753;DHT22;43583;53.132;6.574;2023-04-15T09:13:14;9.20;99.90
57753;DHT22;43583;53.132;6.574;2023-04-15T09:15:40;9.30;99.90
57753;DHT22;43583;53.132;6.574;2023-04-15T09:18:06;9.30;99.90
57753;DHT22;43583;53.132;6.574;2023-04-15T09:20:39;9.30;99.90
57753;DHT22;43583;53.132;6.574;2023-04-15T09:23:12;9.30;99.90
57753;DHT22;43583;53.132;6.574;2023-04-15T09:25:39;9.30;99.90
57753;DHT22;43583;53.132;6.574;2023-04-15T09:28:07;9.30;99.90
57753;DHT22;43583;53.132;6.574;2023-04-15T09:30:33;9.40;99.90
57753;DHT22;43583;53.132;6.574;2023-04-15T09:33:00;9.50;99.90
57753;DHT22;43583;53.132;6.574;2023-04-15T09:35:27;9.50;99.90
57753;DHT22;43583;53.132;6.574;2023-04-15T09:38:03;9.60;99.90
57753;DHT22;43583;53.132;6.574;2023-04-15T09:40:33;9.80;99.90
57753;DHT22;43583;53.132;6.574;2023-04-15T09:42:59;10.10;99.90
57753;DHT22;43583;53.132;6.574;2023-04-15T09:45:26;10.40;99.90
57753;DHT22;43583;53.132;6.574;2023-04-15T09:47:52;10.50;99.90
57753;DHT22;43583;53.132;6.574;2023-04-15T09:50:19;10.60;99.90
57753;DHT22;43583;53.132;6.574;2023-04-15T09:52:45;10.60;99.90
57753;DHT22;43583;53.132;6.574;2023-04-15T09:55:12;10.50;99.90
57753;DHT22;43583;53.132;6.574;2023-04-15T09:57:39;10.50;99.90
57753;DHT22;43583;53.132;6.574;2023-04-15T10:00:09;10.50;99.90
57753;DHT22;43583;53.132;6.574;2023-04-15T10:02:36;10.60;99.90
57753;DHT22;43583;53.132;6.574;2023-04-15T10:05:02;10.60;99.90
57753;DHT22;43583;53.132;6.574;2023-04-15T10:07:28;10.80;99.90
57753;DHT22;43583;53.132;6.574;2023-04-15T10:10:20;10.90;99.90
57753;DHT22;43583;53.132;6.574;2023-04-15T10:13:32;10.80;99.90
57753;DHT22;43583;53.132;6.574;2023-04-15T10:16:10;10.80;99.90
57753;DHT22;43583;53.132;6.574;2023-04-15T10:18:41;10.80;99.90
57753;DHT22;43583;53.132;6.574;2023-04-15T10:21:07;10.90;99.90
57753;DHT22;43583;53.132;6.574;2023-04-15T10:23:33;10.70;99.90
57753;DHT22;43583;53.132;6.574;2023-04-15T10:25:59;10.60;99.90
57753;DHT22;43583;53.132;6.574;2023-04-15T10:28:26;10.60;99.90
57753;DHT22;43583;53.132;6.574;2023-04-15T10:30:52;10.60;99.90
57753;DHT22;43583;53.132;6.574;2023-04-15T10:33:21;10.40;99.90
57753;DHT22;43583;53.132;6.574;2023-04-15T10:35:48;10.40;99.90
57753;DHT22;43583;53.132;6.574;2023-04-15T10:38:35;10.30;99.90
57753;DHT22;43583;53.132;6.574;2023-04-15T10:41:19;10.30;99.90
57753;DHT22;43583;53.132;6.574;2023-04-15T10:46:41;10.30;99.90
57753;DHT22;43583;53.132;6.574;2023-04-15T10:49:14;10.20;99.90
57753;DHT22;43583;53.132;6.574;2023-04-15T10:51:56;10.20;99.90
57753;DHT22;43583;53.132;6.574;2023-04-15T10:55:14;10.00;99.90
57753;DHT22;43583;53.132;6.574;2023-04-15T10:57:52;10.00;99.90
57753;DHT22;43583;53.132;6.574;2023-04-15T11:00:20;9.90;99.90
57753;DHT22;43583;53.132;6.574;2023-04-15T11:05:20;9.80;99.90
57753;DHT22;43583;53.132;6.574;2023-04-15T11:07:47;9.80;99.90
57753;DHT22;43583;53.132;6.574;2023-04-15T11:12:39;9.70;99.90
57753;DHT22;43583;53.132;6.574;2023-04-15T11:17:50;9.80;99.90
57753;DHT22;43583;53.132;6.574;2023-04-15T11:20:15;9.90;99.90
57753;DHT22;43583;53.132;6.574;2023-04-15T11:22:49;10.00;99.90
57753;DHT22;43583;53.132;6.574;2023-04-15T11:25:23;10.00;99.90
57753;DHT22;43583;53.132;6.574;2023-04-15T11:27:49;10.00;99.90
57753;DHT22;43583;53.132;6.574;2023-04-15T11:30:20;9.90;99.90
57753;DHT22;43583;53.132;6.574;2023-04-15T11:32:47;9.90;99.90
57753;DHT22;43583;53.132;6.574;2023-04-15T11:35:12;10.00;99.90
57753;DHT22;43583;53.132;6.574;2023-04-15T11:37:38;10.20;99.90
57753;DHT22;43583;53.132;6.574;2023-04-15T11:40:05;10.30;99.90
57753;DHT22;43583;53.132;6.574;2023-04-15T11:42:31;10.40;99.90
57753;DHT22;43583;53.132;6.574;2023-04-15T11:45:10;10.40;99.90
57753;DHT22;43583;53.132;6.574;2023-04-15T11:47:37;10.50;99.90
57753;DHT22;43583;53.132;6.574;2023-04-15T11:50:14;10.40;99.90
57753;DHT22;43583;53.132;6.574;2023-04-15T11:53:02;10.40;99.90
57753;DHT22;43583;53.132;6.574;2023-04-15T11:55:27;10.50;99.90
57753;DHT22;43583;53.132;6.574;2023-04-15T11:58:20;10.50;99.90
57753;DHT22;43583;53.132;6.574;2023-04-15T12:00:52;10.40;99.90
57753;DHT22;43583;53.132;6.574;2023-04-15T12:03:39;10.50;99.90
57753;DHT22;43583;53.132;6.574;2023-04-15T12:06:19;10.60;99.90
57753;DHT22;43583;53.132;6.574;2023-04-15T12:08:57;10.70;99.90
57753;DHT22;43583;53.132;6.574;2023-04-15T12:13:57;10.70;99.90
57753;DHT22;43583;53.132;6.574;2023-04-15T12:16:24;10.80;99.90
57753;DHT22;43583;53.132;6.574;2023-04-15T12:18:54;10.80;99.90
57753;DHT22;43583;53.132;6.574;2023-04-15T12:21:25;10.90;99.90
57753;DHT22;43583;53.132;6.574;2023-04-15T12:26:18;10.70;99.90
57753;DHT22;43583;53.132;6.574;2023-04-15T12:29:02;10.60;99.90
57753;DHT22;43583;53.132;6.574;2023-04-15T12:31:28;10.70;99.90
57753;DHT22;43583;53.132;6.574;2023-04-15T12:33:55;10.70;99.90
57753;DHT22;43583;53.132;6.574;2023-04-15T12:36:21;10.60;99.90
57753;DHT22;43583;53.132;6.574;2023-04-15T12:38:48;10.70;99.90
57753;DHT22;43583;53.132;6.574;2023-04-15T12:41:13;10.80;99.90
57753;DHT22;43583;53.132;6.574;2023-04-15T12:43:39;10.70;99.90
57753;DHT22;43583;53.132;6.574;2023-04-15T12:46:04;10.70;99.90
57753;DHT22;43583;53.132;6.574;2023-04-15T12:48:31;10.60;99.90
57753;DHT22;43583;53.132;6.574;2023-04-15T12:50:57;10.50;99.90
57753;DHT22;43583;53.132;6.574;2023-04-15T12:53:23;10.50;99.90
57753;DHT22;43583;53.132;6.574;2023-04-15T12:55:48;10.50;99.90
57753;DHT22;43583;53.132;6.574;2023-04-15T12:58:14;10.40;99.90
57753;DHT22;43583;53.132;6.574;2023-04-15T13:00:40;10.50;99.90
57753;DHT22;43583;53.132;6.574;2023-04-15T13:03:05;10.40;99.90
57753;DHT22;43583;53.132;6.574;2023-04-15T13:05:31;10.40;99.90
57753;DHT22;43583;53.132;6.574;2023-04-15T13:07:56;10.20;99.90
57753;DHT22;43583;53.132;6.574;2023-04-15T13:10:22;10.20;99.90
57753;DHT22;43583;53.132;6.574;2023-04-15T13:12:48;10.10;99.90
57753;DHT22;43583;53.132;6.574;2023-04-15T13:15:18;10.10;99.90
57753;DHT22;43583;53.132;6.574;2023-04-15T13:17:46;10.00;99.90
57753;DHT22;43583;53.132;6.574;2023-04-15T13:20:12;10.10;99.90
57753;DHT22;43583;53.132;6.574;2023-04-15T13:22:38;10.00;99.90
57753;DHT22;43583;53.132;6.574;2023-04-15T13:25:04;10.00;99.90
57753;DHT22;43583;53.132;6.574;2023-04-15T13:27:29;9.90;99.90
57753;DHT22;43583;53.132;6.574;2023-04-15T13:29:56;9.80;99.90
57753;DHT22;43583;53.132;6.574;2023-04-15T13:32:21;9.70;99.90
57753;DHT22;43583;53.132;6.574;2023-04-15T13:34:47;9.70;99.90
57753;DHT22;43583;53.132;6.574;2023-04-15T13:37:12;9.70;99.90
57753;DHT22;43583;53.132;6.574;2023-04-15T13:39:38;9.60;99.90
57753;DHT22;43583;53.132;6.574;2023-04-15T13:42:03;9.60;99.90
57753;DHT22;43583;53.132;6.574;2023-04-15T13:44:29;9.60;99.90
57753;DHT22;43583;53.132;6.574;2023-04-15T13:46:55;9.50;99.90
57753;DHT22;43583;53.132;6.574;2023-04-15T13:49:21;9.50;99.90
57753;DHT22;43583;53.132;6.574;2023-04-15T13:51:46;9.60;99.90
57753;DHT22;43583;53.132;6.574;2023-04-15T13:54:12;9.60;99.90
57753;DHT22;43583;53.132;6.574;2023-04-15T13:56:37;9.60;99.90
57753;DHT22;43583;53.132;6.574;2023-04-15T13:59:03;9.50;99.90
57753;DHT22;43583;53.132;6.574;2023-04-15T14:01:28;9.60;99.90
57753;DHT22;43583;53.132;6.574;2023-04-15T14:03:54;9.60;99.90
57753;DHT22;43583;53.132;6.574;2023-04-15T14:06:20;9.60;99.90
57753;DHT22;43583;53.132;6.574;2023-04-15T14:08:46;9.70;99.90
57753;DHT22;43583;53.132;6.574;2023-04-15T14:11:12;9.70;99.90
57753;DHT22;43583;53.132;6.574;2023-04-15T14:13:37;9.70;99.90
57753;DHT22;43583;53.132;6.574;2023-04-15T14:16:03;9.70;99.90
57753;DHT22;43583;53.132;6.574;2023-04-15T14:18:29;9.60;99.90
57753;DHT22;43583;53.132;6.574;2023-04-15T14:20:55;9.60;99.90
57753;DHT22;43583;53.132;6.574;2023-04-15T14:23:21;9.60;99.90
57753;DHT22;43583;53.132;6.574;2023-04-15T14:25:47;9.60;99.90
57753;DHT22;43583;53.132;6.574;2023-04-15T14:28:13;9.50;99.90
57753;DHT22;43583;53.132;6.574;2023-04-15T14:30:38;9.50;99.90
57753;DHT22;43583;53.132;6.574;2023-04-15T14:33:04;9.40;99.90
57753;DHT22;43583;53.132;6.574;2023-04-15T14:35:30;9.40;99.90
57753;DHT22;43583;53.132;6.574;2023-04-15T14:37:55;9.30;99.90
57753;DHT22;43583;53.132;6.574;2023-04-15T14:40:22;9.30;99.90
57753;DHT22;43583;53.132;6.574;2023-04-15T14:42:47;9.30;99.90
57753;DHT22;43583;53.132;6.574;2023-04-15T14:45:13;9.30;99.90
57753;DHT22;43583;53.132;6.574;2023-04-15T14:47:39;9.30;99.90
57753;DHT22;43583;53.132;6.574;2023-04-15T14:50:04;9.20;99.90
57753;DHT22;43583;53.132;6.574;2023-04-15T14:52:31;9.20;99.90
57753;DHT22;43583;53.132;6.574;2023-04-15T14:55:10;9.20;99.90
57753;DHT22;43583;53.132;6.574;2023-04-15T14:57:37;9.10;99.90
57753;DHT22;43583;53.132;6.574;2023-04-15T15:00:03;9.00;99.90
57753;DHT22;43583;53.132;6.574;2023-04-15T15:02:29;9.00;99.90
57753;DHT22;43583;53.132;6.574;2023-04-15T15:04:56;9.00;99.90
57753;DHT22;43583;53.132;6.574;2023-04-15T15:07:22;9.00;99.90
57753;DHT22;43583;53.132;6.574;2023-04-15T15:09:48;8.90;99.90
57753;DHT22;43583;53.132;6.574;2023-04-15T15:12:13;8.90;99.90
57753;DHT22;43583;53.132;6.574;2023-04-15T15:14:39;8.90;99.90
57753;DHT22;43583;53.132;6.574;2023-04-15T15:17:04;8.90;99.90
57753;DHT22;43583;53.132;6.574;2023-04-15T15:19:30;8.90;99.90
57753;DHT22;43583;53.132;6.574;2023-04-15T15:21:56;8.80;99.90
57753;DHT22;43583;53.132;6.574;2023-04-15T15:24:21;8.80;99.90
57753;DHT22;43583;53.132;6.574;2023-04-15T15:26:47;8.80;99.90
57753;DHT22;43583;53.132;6.574;2023-04-15T15:29:12;8.80;99.90
57753;DHT22;43583;53.132;6.574;2023-04-15T15:31:38;8.80;99.90
57753;DHT22;43583;53.132;6.574;2023-04-15T15:34:04;8.80;99.90
57753;DHT22;43583;53.132;6.574;2023-04-15T15:36:29;8.80;99.90
57753;DHT22;43583;53.132;6.574;2023-04-15T15:38:58;8.80;99.90
57753;DHT22;43583;53.132;6.574;2023-04-15T15:41:24;8.80;99.90
57753;DHT22;43583;53.132;6.574;2023-04-15T15:43:50;8.80;99.90
57753;DHT22;43583;53.132;6.574;2023-04-15T15:46:16;8.80;99.90
57753;DHT22;43583;53.132;6.574;2023-04-15T15:48:42;8.70;99.90
57753;DHT22;43583;53.132;6.574;2023-04-15T15:51:08;8.70;99.90
57753;DHT22;43583;53.132;6.574;2023-04-15T15:53:34;8.70;99.90
57753;DHT22;43583;53.132;6.574;2023-04-15T15:55:59;8.70;99.90